Latest Weather Observations for Jimna

IDQ60801

Issued at 8:35 am EST Thursday 23 October 2014 (issued every 30 minutes, with the page automatically refreshed every 10 minutes)

About weather observations | Map of weather stations | Latest weather observations for QLD | Other Formats
Station Details ID: 040651 Name: JIMNA FORESTRY Lat: -26.66 Lon: 152.46 Height: 523.0 m
Data from the previous 72 hours. | See also: Recent months at Jimna
Date/Time
EST
Temp
°C
App
Temp
°C
Dew
Point
Rel
Hum
%
Delta-T
°C
Wind Press
QNH
hPa
Press
MSL
hPa
Rain
since 9 am
mm
Dir
 
Spd
km/h
Gust
km/h
Spd
kts
Gust
kts
23/08:30am 19.2 - 9.4 53 5.3 - - - - - - - 0.0
23/08:00am 17.8 - 9.2 57 4.6 - - - - - - - 0.0
23/07:30am 17.2 - 11.2 68 3.3 - - - - - - - 0.0
23/07:00am 14.6 - 11.2 80 1.9 - - - - - - - 0.0
23/06:30am 10.7 - 9.0 89 0.9 - - - - - - - 0.0
23/06:00am 8.3 - 8.3 100 0.0 - - - - - - - 0.0
23/05:30am 6.8 - 5.4 91 0.6 - - - - - - - 0.0
23/05:00am 7.1 - 5.7 91 0.6 - - - - - - - 0.0
23/04:30am 7.5 - 6.1 91 0.7 - - - - - - - 0.0
23/04:00am 7.8 - 6.3 90 0.7 - - - - - - - 0.0
23/03:30am 8.1 - 6.4 89 0.8 - - - - - - - 0.0
23/03:00am 8.7 - 7.2 90 0.7 - - - - - - - 0.0
23/02:30am 9.4 - 7.7 89 0.8 - - - - - - - 0.0
23/02:00am 9.8 - 8.1 89 0.8 - - - - - - - 0.0
23/01:30am 10.4 - 8.3 87 1.1 - - - - - - - 0.0
23/01:00am 11.0 - 8.9 87 1.1 - - - - - - - 0.0
23/12:30am 11.6 - 9.5 87 1.1 - - - - - - - 0.0
23/12:00am 12.1 - 9.8 86 1.2 - - - - - - - 0.0
 
Date/Time
EST
Temp
°C
App
Temp
°C
Dew
Point
Rel
Hum
%
Delta-T
°C
Wind Press
QNH
hPa
Press
MSL
hPa
Rain
since 9 am
mm
Dir
 
Spd
km/h
Gust
km/h
Spd
kts
Gust
kts
22/11:30pm 12.8 - 10.7 87 1.1 - - - - - - - 0.0
22/11:00pm 12.5 - 10.0 85 1.3 - - - - - - - 0.0
22/10:30pm 12.9 - 10.3 84 1.4 - - - - - - - 0.0
22/10:00pm 13.2 - 10.4 83 1.5 - - - - - - - 0.0
22/09:30pm 13.4 - 10.4 82 1.6 - - - - - - - 0.0
22/09:00pm 13.6 - 10.4 81 1.7 - - - - - - - 0.0
22/08:30pm 13.8 - 10.0 78 2.0 - - - - - - - 0.0
22/08:00pm 14.3 - 10.1 76 2.2 - - - - - - - 0.0
22/07:30pm 14.7 - 10.3 75 2.4 - - - - - - - 0.0
22/07:00pm 15.1 - 10.3 73 2.6 - - - - - - - 0.0
22/06:30pm 15.8 - 9.9 68 3.2 - - - - - - - 0.0
22/06:00pm 16.6 - 10.0 65 3.6 - - - - - - - 0.0
22/05:30pm 17.6 - 9.8 60 4.2 - - - - - - - 0.0
22/05:00pm 18.3 - 9.6 57 4.7 - - - - - - - 0.0
22/04:30pm 19.6 - 9.2 51 5.6 - - - - - - - 0.0
22/04:00pm 21.5 - 7.7 41 7.3 - - - - - - - 0.0
22/03:30pm 21.3 - 7.5 41 7.3 - - - - - - - 0.0
22/03:00pm 21.5 - 5.8 36 8.1 - - - - - - - 0.0
22/02:30pm 22.7 - 6.0 34 8.7 - - - - - - - 0.0
22/02:00pm 21.4 - 5.7 36 8.0 - - - - - - - 0.0
22/01:30pm 22.4 - 6.6 36 8.3 - - - - - - - 0.0
22/01:00pm 22.2 - 6.8 37 8.1 - - - - - - - 0.0
22/12:30pm 22.3 - 6.1 35 8.4 - - - - - - - 0.0
22/12:00pm 21.6 - 8.1 42 7.2 - - - - - - - 0.0
22/11:30am 20.0 - 7.1 43 6.7 - - - - - - - 0.0
22/11:00am 20.4 - 8.1 45 6.6 - - - - - - - 0.0
22/10:30am 20.0 - 8.4 47 6.2 - - - - - - - 0.0
22/10:00am 19.1 - 8.4 50 5.7 - - - - - - - 0.0
22/09:30am 19.2 - 9.1 52 5.4 - - - - - - - 0.0
22/09:00am 17.1 - 9.5 61 4.1 - - - - - - - 0.8
22/08:30am 16.9 - 10.1 64 3.7 - - - - - - - 0.8
22/08:00am 16.7 - 10.1 65 3.6 - - - - - - - 0.8
22/07:30am 15.4 - 11.0 75 2.4 - - - - - - - 0.8
22/07:00am 14.4 - 11.2 81 1.7 - - - - - - - 0.8
22/06:30am 14.0 - 11.3 84 1.5 - - - - - - - 0.8
22/06:00am 13.5 - 11.4 87 1.1 - - - - - - - 0.8
22/05:30am 13.2 - 11.1 87 1.1 - - - - - - - 0.8
22/05:00am 13.1 - 11.2 88 1.0 - - - - - - - 0.8
22/04:30am 13.3 - 11.0 86 1.2 - - - - - - - 0.8
22/04:00am 13.5 - 11.0 85 1.4 - - - - - - - 0.8
22/03:30am 13.5 - 11.0 85 1.4 - - - - - - - 0.8
22/03:00am 13.5 - 11.2 86 1.2 - - - - - - - 0.8
22/02:30am 13.4 - 11.1 86 1.2 - - - - - - - 0.8
22/02:00am 13.4 - 11.3 87 1.1 - - - - - - - 0.8
22/01:30am 13.7 - 11.0 84 1.5 - - - - - - - 0.8
22/01:00am 14.0 - 10.8 81 1.7 - - - - - - - 0.8
22/12:30am 14.1 - 10.7 80 1.8 - - - - - - - 0.8
22/12:00am 14.3 - 10.7 79 1.9 - - - - - - - 0.8
 
Date/Time
EST
Temp
°C
App
Temp
°C
Dew
Point
Rel
Hum
%
Delta-T
°C
Wind Press
QNH
hPa
Press
MSL
hPa
Rain
since 9 am
mm
Dir
 
Spd
km/h
Gust
km/h
Spd
kts
Gust
kts
21/11:30pm 14.5 - 10.9 79 2.0 - - - - - - - 0.8
21/11:00pm 14.7 - 10.9 78 2.1 - - - - - - - 0.8
21/10:30pm 14.9 - 10.9 77 2.2 - - - - - - - 0.8
21/10:00pm 15.1 - 11.1 77 2.2 - - - - - - - 0.8
21/09:30pm 15.1 - 11.1 77 2.2 - - - - - - - 0.8
21/09:00pm 15.1 - 11.1 77 2.2 - - - - - - - 0.8
21/08:30pm 15.3 - 11.1 76 2.3 - - - - - - - 0.8
21/08:00pm 15.7 - 11.1 74 2.5 - - - - - - - 0.8
21/07:30pm 16.4 - 12.0 75 2.5 - - - - - - - 0.8
21/07:00pm 16.5 - 12.3 76 2.4 - - - - - - - 0.8
21/06:30pm 16.8 - 12.3 75 2.5 - - - - - - - 0.8
21/06:00pm 17.2 - 12.3 73 2.8 - - - - - - - 0.8
21/05:30pm 17.8 - 12.3 70 3.1 - - - - - - - 0.8
21/05:00pm 18.7 - 12.0 65 3.8 - - - - - - - 0.8
21/04:30pm 19.1 - 11.4 61 4.3 - - - - - - - 0.8
21/04:00pm 19.9 - 10.9 56 5.0 - - - - - - - 0.8
21/03:30pm 20.1 - 11.3 57 5.0 - - - - - - - 0.8
21/03:00pm 20.0 - 12.0 60 4.6 - - - - - - - 0.8
21/02:30pm 20.3 - 12.3 60 4.6 - - - - - - - 0.8
21/02:00pm 19.8 - 12.1 61 4.4 - - - - - - - 0.8
21/01:30pm 20.2 - 12.7 62 4.3 - - - - - - - 0.8
21/01:00pm 20.2 - 13.2 64 4.1 - - - - - - - 0.6
21/12:30pm 19.5 - 13.0 66 3.8 - - - - - - - 0.6
21/12:00pm 18.3 - 14.0 76 2.5 - - - - - - - 0.6
21/11:30am 16.9 - 13.4 80 2.0 - - - - - - - 0.6
21/11:00am 16.2 - 13.9 86 1.3 - - - - - - - 0.6
21/10:30am 16.2 - 14.4 89 1.1 - - - - - - - 0.6
21/10:00am 16.1 - 13.9 87 1.3 - - - - - - - 0.2
21/09:30am 16.2 - 14.2 88 1.2 - - - - - - - 0.0
21/09:00am 16.0 - 14.0 88 1.2 - - - - - - - 0.0
21/08:30am 15.5 - 13.5 88 1.1 - - - - - - - 0.0
21/08:00am 15.5 - 13.0 85 1.4 - - - - - - - 0.0
21/07:30am 16.3 - 12.5 78 2.1 - - - - - - - 0.0
21/07:00am 16.5 - 12.5 77 2.3 - - - - - - - 0.0
21/06:30am 15.8 - 12.2 79 2.0 - - - - - - - 0.0
21/06:00am 15.1 - 12.1 82 1.7 - - - - - - - 0.0
21/05:30am 14.1 - 11.6 85 1.4 - - - - - - - 0.0
21/05:00am 14.1 - 12.0 87 1.2 - - - - - - - 0.0
21/04:30am 13.5 - 11.2 86 1.2 - - - - - - - 0.0
21/04:00am 13.4 - 10.8 84 1.4 - - - - - - - 0.0
21/03:30am 14.1 - 10.9 81 1.7 - - - - - - - 0.0
21/03:00am 14.5 - 11.3 81 1.8 - - - - - - - 0.0
21/02:30am 15.0 - 11.2 78 2.1 - - - - - - - 0.0
21/02:00am 15.3 - 11.7 79 2.0 - - - - - - - 0.0
21/01:30am 15.2 - 11.8 80 1.9 - - - - - - - 0.0
21/01:00am 14.9 - 11.3 79 2.0 - - - - - - - 0.0
21/12:30am 14.9 - 11.3 79 2.0 - - - - - - - 0.0
21/12:00am 15.1 - 11.1 77 2.2 - - - - - - - 0.0
 
Date/Time
EST
Temp
°C
App
Temp
°C
Dew
Point
Rel
Hum
%
Delta-T
°C
Wind Press
QNH
hPa
Press
MSL
hPa
Rain
since 9 am
mm
Dir
 
Spd
km/h
Gust
km/h
Spd
kts
Gust
kts
20/11:30pm 15.2 - 11.0 76 2.3 - - - - - - - 0.0
20/11:00pm 15.4 - 11.0 75 2.4 - - - - - - - 0.0
20/10:30pm 15.6 - 10.2 70 2.9 - - - - - - - 0.0
20/10:00pm 15.9 - 9.1 64 3.6 - - - - - - - 0.0
20/09:30pm 16.4 - 8.1 58 4.3 - - - - - - - 0.0
20/09:00pm 17.1 - 4.4 43 6.2 - - - - - - - 0.0
20/08:30pm 17.9 - 5.8 45 6.1 - - - - - - - 0.0
20/08:00pm 18.3 - 5.2 42 6.5 - - - - - - - 0.0
20/07:30pm 18.7 - 7.5 48 5.8 - - - - - - - 0.0
20/07:00pm 18.9 - 8.3 50 5.6 - - - - - - - 0.0
20/06:30pm 19.3 - 10.0 55 5.1 - - - - - - - 0.0
20/06:00pm 20.5 - 10.0 51 5.8 - - - - - - - 0.0
20/05:30pm 21.8 - 9.7 46 6.7 - - - - - - - 0.0
20/05:00pm 22.6 - 9.4 43 7.3 - - - - - - - 0.0
20/04:30pm 24.5 - 5.3 29 10.0 - - - - - - - 0.0
20/04:00pm 25.3 - 3.3 24 11.1 - - - - - - - 0.0
20/03:30pm 25.6 - 4.7 26 10.8 - - - - - - - 0.0
20/03:00pm 26.5 - 5.5 26 11.1 - - - - - - - 0.0
20/02:30pm 26.9 - 5.2 25 11.4 - - - - - - - 0.0
20/02:00pm 27.2 - 4.9 24 11.7 - - - - - - - 0.0
20/01:30pm 26.6 - 5.5 26 11.1 - - - - - - - 0.0
20/01:00pm 26.6 - 6.1 27 10.9 - - - - - - - 0.0
20/12:30pm 25.6 - 4.7 26 10.8 - - - - - - - 0.0
20/12:00pm 25.0 - 4.7 27 10.4 - - - - - - - 0.0
20/11:30am 24.7 - 5.5 29 10.0 - - - - - - - 0.0
20/11:00am 24.0 - 4.9 29 9.8 - - - - - - - 0.0
20/10:30am 23.2 - 6.0 33 9.0 - - - - - - - 0.0
20/10:00am 22.3 - 6.9 37 8.1 - - - - - - - 0.0
20/09:30am 21.3 - 8.2 43 7.0 - - - - - - - 0.0
20/09:00am 20.5 - 9.1 48 6.2 - - - - - - - 0.0

Other Formats:

Comma delimited format used in spreadsheet applications
http://www.bom.gov.au/fwo/IDQ60801/IDQ60801.94557.axf

JavaScript Object Notation format (JSON) in row-major order
http://www.bom.gov.au/fwo/IDQ60801/IDQ60801.94557.json